createdAt,value
2023-05-22T00:01:06.529Z,57.00
2023-05-22T00:03:37.190Z,56.81
2023-05-22T00:06:09.721Z,56.82
2023-05-22T00:08:38.805Z,57.27
2023-05-22T00:11:07.619Z,57.87
2023-05-22T00:13:36.707Z,57.88
2023-05-22T00:16:06.896Z,57.77
2023-05-22T00:18:35.700Z,57.93
2023-05-22T00:21:04.828Z,58.31
2023-05-22T00:23:34.372Z,58.57
2023-05-22T00:26:04.259Z,58.73
2023-05-22T00:28:33.820Z,58.51
2023-05-22T00:31:02.822Z,58.94
2023-05-22T00:33:33.748Z,59.47
2023-05-22T00:36:02.554Z,59.02
2023-05-22T00:38:33.338Z,59.24
2023-05-22T00:41:02.668Z,59.38
2023-05-22T00:43:31.418Z,58.81
2023-05-22T00:46:00.431Z,59.29
2023-05-22T00:48:29.250Z,59.35
2023-05-22T00:50:59.486Z,59.15
2023-05-22T00:53:30.670Z,59.39
2023-05-22T00:56:00.592Z,59.73
2023-05-22T00:58:30.224Z,59.98
2023-05-22T01:00:59.131Z,59.44
2023-05-22T01:03:28.256Z,60.05
2023-05-22T01:05:57.201Z,60.47
2023-05-22T01:08:26.009Z,60.50
2023-05-22T01:10:58.115Z,60.19
2023-05-22T01:13:33.601Z,60.57
2023-05-22T01:16:12.823Z,60.27
2023-05-22T01:18:49.668Z,60.18
2023-05-22T01:21:26.563Z,60.56
2023-05-22T01:24:32.131Z,60.89
2023-05-22T01:27:25.361Z,60.74
2023-05-22T01:30:12.191Z,60.59
2023-05-22T01:32:43.475Z,60.35
2023-05-22T01:35:15.500Z,61.05
2023-05-22T01:37:45.333Z,61.19
2023-05-22T01:40:15.402Z,61.37
2023-05-22T01:42:44.194Z,60.86
2023-05-22T01:45:16.242Z,61.00
2023-05-22T01:47:46.169Z,60.98
2023-05-22T01:50:15.137Z,61.60
2023-05-22T01:52:54.256Z,61.43
2023-05-22T01:55:29.283Z,61.54
2023-05-22T01:58:16.557Z,61.28
2023-05-22T02:00:48.020Z,61.62
2023-05-22T02:03:20.411Z,61.56
2023-05-22T02:05:54.503Z,61.75
2023-05-22T02:08:25.065Z,61.93
2023-05-22T02:10:56.761Z,62.17
2023-05-22T02:13:25.822Z,62.22
2023-05-22T02:15:55.335Z,62.91
2023-05-22T02:18:29.223Z,62.89
2023-05-22T02:20:58.666Z,63.34
2023-05-22T02:23:29.124Z,63.16
2023-05-22T02:25:58.123Z,63.20
2023-05-22T02:28:27.106Z,62.97
2023-05-22T02:30:55.904Z,63.51
2023-05-22T02:33:24.555Z,62.87
2023-05-22T02:35:53.945Z,63.14
2023-05-22T02:38:22.727Z,63.61
2023-05-22T02:40:51.640Z,63.61
2023-05-22T02:43:20.582Z,64.13
2023-05-22T02:45:49.537Z,65.00
2023-05-22T02:48:18.546Z,64.77
2023-05-22T02:50:48.345Z,65.00
2023-05-22T02:53:17.761Z,65.44
2023-05-22T02:55:48.164Z,65.24
2023-05-22T02:58:17.545Z,65.33
2023-05-22T03:00:46.429Z,65.53
2023-05-22T03:03:17.653Z,64.82
2023-05-22T03:05:47.108Z,64.41
2023-05-22T03:08:16.308Z,64.27
2023-05-22T03:10:45.221Z,64.09
2023-05-22T03:13:13.932Z,63.73
2023-05-22T03:15:42.636Z,63.68
2023-05-22T03:18:11.520Z,63.96
2023-05-22T03:20:41.638Z,64.20
2023-05-22T03:23:13.111Z,63.63
2023-05-22T03:25:42.033Z,63.84
2023-05-22T03:28:17.214Z,62.99
2023-05-22T03:30:50.122Z,62.39
2023-05-22T03:33:23.268Z,61.62
2023-05-22T03:35:52.865Z,60.77
2023-05-22T03:38:21.892Z,60.27
2023-05-22T03:40:50.657Z,60.00
2023-05-22T03:43:20.112Z,59.83
2023-05-22T03:45:48.990Z,59.35
2023-05-22T03:48:18.179Z,58.69
2023-05-22T03:50:47.064Z,58.28
2023-05-22T03:53:16.328Z,57.63
2023-05-22T03:55:45.079Z,56.90
2023-05-22T03:58:14.283Z,56.26
2023-05-22T04:00:43.759Z,56.01
2023-05-22T04:03:13.055Z,55.56
2023-05-22T04:05:42.818Z,54.93
2023-05-22T04:08:11.858Z,54.91
2023-05-22T04:10:40.802Z,54.54
2023-05-22T04:13:10.111Z,53.82
2023-05-22T04:15:41.197Z,53.44
2023-05-22T04:18:11.651Z,52.67
2023-05-22T04:20:41.058Z,52.11
2023-05-22T04:23:10.557Z,51.45
2023-05-22T04:25:39.747Z,50.63
2023-05-22T04:28:09.052Z,50.16
2023-05-22T04:30:39.815Z,49.80
2023-05-22T04:33:10.307Z,49.38
2023-05-22T04:35:40.302Z,48.77
2023-05-22T04:38:09.377Z,48.59
2023-05-22T04:40:38.365Z,48.69
2023-05-22T04:43:07.477Z,48.64
2023-05-22T04:45:36.388Z,48.42
2023-05-22T04:48:06.003Z,48.48
2023-05-22T04:50:35.676Z,48.04
2023-05-22T04:53:05.551Z,47.86
2023-05-22T04:55:34.753Z,47.16
2023-05-22T04:58:03.776Z,46.69
2023-05-22T05:00:32.932Z,46.47
2023-05-22T05:03:02.921Z,45.95
2023-05-22T05:05:32.158Z,46.02
2023-05-22T05:08:01.577Z,45.86
2023-05-22T05:10:30.330Z,46.21
2023-05-22T05:12:59.809Z,46.06
2023-05-22T05:15:29.102Z,45.24
2023-05-22T05:17:58.126Z,44.74
2023-05-22T05:20:27.365Z,44.53
2023-05-22T05:22:56.774Z,43.97
2023-05-22T05:25:26.310Z,43.65
2023-05-22T05:27:56.041Z,43.55
2023-05-22T05:30:25.067Z,43.06
2023-05-22T05:32:53.935Z,42.67
2023-05-22T05:35:22.677Z,42.44
2023-05-22T05:37:51.921Z,42.12
2023-05-22T05:40:21.927Z,41.79
2023-05-22T05:42:50.736Z,41.69
2023-05-22T05:45:20.534Z,41.76
2023-05-22T05:47:50.020Z,41.18
2023-05-22T05:50:19.265Z,41.11
2023-05-22T05:52:48.261Z,41.00
2023-05-22T05:55:18.113Z,40.74
2023-05-22T05:57:47.090Z,40.31
2023-05-22T06:00:17.862Z,40.06
2023-05-22T06:02:48.837Z,39.68
2023-05-22T06:05:19.830Z,39.51
2023-05-22T06:07:49.342Z,39.25
2023-05-22T06:10:18.251Z,39.18
2023-05-22T06:12:47.321Z,38.89
2023-05-22T06:15:16.183Z,39.03
2023-05-22T06:17:45.059Z,38.20
2023-05-22T06:20:14.988Z,37.57
2023-05-22T06:22:44.505Z,36.79
2023-05-22T06:25:13.486Z,36.50
2023-05-22T06:27:42.548Z,36.28
2023-05-22T06:30:13.763Z,36.43
2023-05-22T06:32:42.889Z,36.39
2023-05-22T06:35:13.057Z,36.01
2023-05-22T06:37:42.761Z,35.84
2023-05-22T06:40:12.883Z,35.58
2023-05-22T06:42:43.723Z,35.60
2023-05-22T06:45:13.045Z,35.09
2023-05-22T06:47:41.955Z,34.57
2023-05-22T06:50:12.125Z,34.38
2023-05-22T06:52:42.079Z,34.24
2023-05-22T06:55:11.738Z,33.89
2023-05-22T06:57:40.779Z,33.78
2023-05-22T07:00:12.909Z,33.60
2023-05-22T07:02:42.122Z,33.67
2023-05-22T07:05:11.402Z,33.16
2023-05-22T07:07:40.402Z,32.83
2023-05-22T07:10:10.954Z,32.30
2023-05-22T07:12:40.344Z,31.80
2023-05-22T07:15:14.887Z,31.97
2023-05-22T07:17:43.879Z,32.05
2023-05-22T07:20:15.657Z,31.86
2023-05-22T07:22:44.844Z,31.60
2023-05-22T07:25:14.133Z,31.71
2023-05-22T07:27:43.274Z,31.74
2023-05-22T07:30:13.898Z,31.54
2023-05-22T07:32:42.923Z,31.36
2023-05-22T07:35:13.657Z,31.23
2023-05-22T07:37:42.655Z,31.49
2023-05-22T07:40:13.414Z,31.50
2023-05-22T07:42:42.361Z,31.07
2023-05-22T07:45:12.797Z,30.41
2023-05-22T07:47:42.058Z,30.34
2023-05-22T07:50:11.979Z,30.77
2023-05-22T07:52:41.270Z,31.22
2023-05-22T07:55:11.298Z,31.49
2023-05-22T07:57:41.284Z,31.41
2023-05-22T08:00:13.633Z,30.92
2023-05-22T08:02:43.312Z,30.52
2023-05-22T08:05:12.876Z,30.09
2023-05-22T08:07:42.054Z,30.02
2023-05-22T08:10:17.276Z,30.39
2023-05-22T08:12:46.258Z,30.32
2023-05-22T08:15:16.627Z,30.05
2023-05-22T08:17:46.665Z,29.83
2023-05-22T08:20:15.814Z,29.09
2023-05-22T08:22:45.046Z,28.82
2023-05-22T08:25:14.813Z,29.19
2023-05-22T08:27:44.513Z,29.59
2023-05-22T08:30:14.474Z,29.94
2023-05-22T08:32:44.513Z,30.11
2023-05-22T08:35:14.434Z,29.29
2023-05-22T08:37:43.367Z,29.52
2023-05-22T08:40:14.993Z,29.87
2023-05-22T08:42:44.106Z,29.61
2023-05-22T08:45:15.607Z,29.89
2023-05-22T08:47:51.771Z,29.72
2023-05-22T08:50:22.313Z,29.99
2023-05-22T08:52:56.851Z,30.06
2023-05-22T08:55:26.389Z,30.30
2023-05-22T08:57:57.417Z,30.20
2023-05-22T09:00:29.339Z,29.70
2023-05-22T09:02:59.652Z,29.58
2023-05-22T09:05:28.813Z,29.28
2023-05-22T09:08:02.764Z,29.53
2023-05-22T09:10:35.378Z,29.67
2023-05-22T09:13:09.127Z,29.31
2023-05-22T09:15:39.988Z,29.48
2023-05-22T09:18:09.871Z,29.06
2023-05-22T09:20:39.824Z,28.48
2023-05-22T09:23:15.285Z,29.16
2023-05-22T09:25:45.289Z,29.31
2023-05-22T09:28:15.156Z,29.26
2023-05-22T09:30:48.408Z,28.54
2023-05-22T09:33:18.355Z,28.73
2023-05-22T09:35:49.388Z,28.79
2023-05-22T09:38:18.902Z,28.48
2023-05-22T09:40:53.318Z,28.37
2023-05-22T09:43:25.056Z,28.59
2023-05-22T09:46:01.433Z,28.18
2023-05-22T09:48:33.822Z,28.79
2023-05-22T09:51:04.871Z,29.02
2023-05-22T09:53:35.631Z,29.25
2023-05-22T09:56:12.316Z,29.37
2023-05-22T09:58:43.247Z,29.77
2023-05-22T10:01:15.249Z,29.71
2023-05-22T10:03:48.596Z,30.09
2023-05-22T10:06:18.734Z,30.26
2023-05-22T10:08:54.048Z,30.52
2023-05-22T10:11:23.973Z,30.50
2023-05-22T10:13:55.225Z,30.37
2023-05-22T10:16:26.300Z,30.23
2023-05-22T10:18:57.803Z,30.09
2023-05-22T10:21:28.886Z,30.18
2023-05-22T10:24:03.237Z,30.50
2023-05-22T10:26:33.722Z,30.63
2023-05-22T10:29:11.279Z,30.59
2023-05-22T10:31:47.946Z,30.77
2023-05-22T10:34:29.731Z,31.04
2023-05-22T10:37:18.412Z,30.66
2023-05-22T10:40:02.114Z,30.10
2023-05-22T10:42:34.252Z,30.62
2023-05-22T10:45:07.218Z,30.61
2023-05-22T10:47:37.242Z,30.79
2023-05-22T10:50:10.884Z,30.60
2023-05-22T10:52:40.646Z,30.81
2023-05-22T10:55:11.082Z,31.02
2023-05-22T10:57:40.464Z,31.11
2023-05-22T11:00:12.856Z,31.29
2023-05-22T11:02:44.139Z,31.13
2023-05-22T11:05:36.224Z,31.17
2023-05-22T11:08:38.614Z,31.57
2023-05-22T11:11:14.991Z,31.91
2023-05-22T11:13:44.021Z,31.46
2023-05-22T11:16:13.313Z,31.46
2023-05-22T11:18:44.074Z,31.57
2023-05-22T11:21:14.272Z,31.77
2023-05-22T11:23:43.400Z,32.11
2023-05-22T11:26:26.428Z,32.01
2023-05-22T11:28:59.468Z,32.00
2023-05-22T11:31:36.572Z,32.19
2023-05-22T11:34:06.251Z,31.63
2023-05-22T11:36:37.233Z,31.52
2023-05-22T11:39:06.196Z,31.65
2023-05-22T11:41:35.985Z,31.50
2023-05-22T11:44:09.302Z,31.52
2023-05-22T11:46:40.389Z,30.99
2023-05-22T11:49:13.633Z,31.25
2023-05-22T11:51:43.251Z,30.93
2023-05-22T11:54:12.343Z,30.82
2023-05-22T11:56:41.777Z,30.58
2023-05-22T11:59:10.905Z,30.21
2023-05-22T12:01:39.937Z,30.29
2023-05-22T12:04:10.138Z,30.21
2023-05-22T12:06:39.247Z,30.18
2023-05-22T12:09:09.008Z,30.72
2023-05-22T12:11:38.617Z,30.82
2023-05-22T12:14:11.651Z,29.88
2023-05-22T12:16:42.244Z,29.77
2023-05-22T12:19:13.064Z,30.12
2023-05-22T12:21:44.315Z,29.91
2023-05-22T12:24:13.319Z,29.73
2023-05-22T12:26:49.544Z,30.10
2023-05-22T12:29:19.131Z,30.39
2023-05-22T12:31:48.464Z,30.43
2023-05-22T12:34:18.777Z,30.35
2023-05-22T12:36:48.336Z,30.52
2023-05-22T12:39:19.700Z,30.57
2023-05-22T12:41:48.569Z,30.91
2023-05-22T12:44:18.184Z,30.59
2023-05-22T12:46:47.409Z,30.40
2023-05-22T12:49:16.444Z,30.56
2023-05-22T12:51:45.368Z,30.63
2023-05-22T12:54:15.152Z,30.72
2023-05-22T12:56:44.034Z,30.89
2023-05-22T12:59:13.040Z,30.69
2023-05-22T13:01:42.493Z,30.28
2023-05-22T13:04:11.217Z,30.74
2023-05-22T13:06:40.439Z,30.76
2023-05-22T13:09:10.131Z,30.78
2023-05-22T13:11:39.798Z,30.46
2023-05-22T13:14:09.363Z,30.15
2023-05-22T13:16:38.488Z,30.44
2023-05-22T13:19:08.038Z,30.26
2023-05-22T13:21:37.416Z,30.15
2023-05-22T13:24:07.232Z,30.15
2023-05-22T13:26:36.476Z,30.41
2023-05-22T13:29:06.589Z,30.09
2023-05-22T13:31:37.651Z,30.18
2023-05-22T13:34:06.926Z,30.60
2023-05-22T13:36:35.899Z,29.82
2023-05-22T13:39:05.056Z,29.90
2023-05-22T13:41:33.935Z,29.84
2023-05-22T13:44:03.390Z,29.88
2023-05-22T13:46:32.288Z,30.19
2023-05-22T13:49:01.281Z,30.26
2023-05-22T13:51:30.691Z,30.15
2023-05-22T13:53:59.402Z,30.57
2023-05-22T13:56:28.268Z,30.61
2023-05-22T13:58:57.251Z,30.33
2023-05-22T14:01:26.248Z,30.48
2023-05-22T14:03:56.475Z,30.33
2023-05-22T14:06:27.342Z,30.24
2023-05-22T14:08:57.184Z,30.34
2023-05-22T14:11:27.345Z,30.68
2023-05-22T14:13:57.056Z,30.29
2023-05-22T14:16:25.880Z,29.93
2023-05-22T14:18:55.458Z,29.70
2023-05-22T14:21:25.495Z,29.35
2023-05-22T14:23:55.293Z,29.59
2023-05-22T14:26:24.379Z,29.46
2023-05-22T14:28:53.561Z,29.77
2023-05-22T14:31:23.553Z,29.97
2023-05-22T14:33:52.610Z,30.42
2023-05-22T14:36:22.189Z,30.72
2023-05-22T14:38:51.268Z,30.13
2023-05-22T14:41:20.992Z,30.19
2023-05-22T14:43:50.017Z,29.57
2023-05-22T14:46:19.064Z,29.71
2023-05-22T14:48:48.100Z,30.19
2023-05-22T14:51:18.253Z,30.33
2023-05-22T14:53:47.289Z,30.25
2023-05-22T14:56:16.775Z,30.42
2023-05-22T14:58:45.716Z,30.39
2023-05-22T15:01:15.084Z,30.66
2023-05-22T15:03:44.116Z,30.69
2023-05-22T15:06:13.590Z,30.48
2023-05-22T15:08:42.864Z,30.69
2023-05-22T15:11:11.997Z,30.45
2023-05-22T15:13:41.191Z,30.26
2023-05-22T15:16:11.591Z,30.78
2023-05-22T15:18:40.697Z,30.92
2023-05-22T15:21:10.677Z,31.32
2023-05-22T15:23:40.359Z,31.41
2023-05-22T15:26:10.450Z,31.16
2023-05-22T15:28:39.760Z,31.19
2023-05-22T15:31:09.659Z,30.97
2023-05-22T15:33:39.497Z,30.77
2023-05-22T15:36:09.131Z,30.07
2023-05-22T15:38:39.250Z,30.11
2023-05-22T15:41:08.981Z,30.41
2023-05-22T15:43:38.616Z,30.88
2023-05-22T15:46:08.611Z,31.04
2023-05-22T15:48:41.932Z,31.57
2023-05-22T15:51:11.329Z,31.41
2023-05-22T15:53:40.543Z,31.20
2023-05-22T15:56:10.831Z,31.13
2023-05-22T15:58:39.751Z,31.04
2023-05-22T16:01:09.293Z,31.66
2023-05-22T16:03:38.920Z,31.92
2023-05-22T16:06:08.552Z,31.57
2023-05-22T16:08:37.691Z,31.65
2023-05-22T16:11:07.344Z,31.54
2023-05-22T16:13:37.514Z,31.24
2023-05-22T16:16:07.200Z,31.23
2023-05-22T16:18:36.382Z,31.10
2023-05-22T16:21:06.356Z,31.30
2023-05-22T16:23:36.332Z,31.76
2023-05-22T16:26:05.887Z,31.93
2023-05-22T16:28:35.174Z,31.83
2023-05-22T16:31:05.872Z,31.76
2023-05-22T16:33:37.204Z,32.05
2023-05-22T16:36:08.062Z,32.05
2023-05-22T16:38:40.321Z,31.96
2023-05-22T16:41:09.912Z,32.21
2023-05-22T16:43:39.532Z,32.28
2023-05-22T16:46:09.193Z,32.55
2023-05-22T16:48:38.367Z,32.55
2023-05-22T16:51:07.590Z,32.60
2023-05-22T16:53:38.307Z,32.78
2023-05-22T16:56:08.315Z,32.98
2023-05-22T16:58:39.009Z,33.14
2023-05-22T17:01:08.575Z,33.14
2023-05-22T17:03:38.678Z,33.13
2023-05-22T17:06:09.121Z,33.35
2023-05-22T17:08:38.295Z,33.42
2023-05-22T17:11:07.822Z,33.16
2023-05-22T17:13:40.041Z,33.28
2023-05-22T17:16:09.764Z,33.40
2023-05-22T17:18:39.107Z,33.41
2023-05-22T17:21:09.144Z,33.49
2023-05-22T17:23:38.480Z,33.58
2023-05-22T17:26:08.619Z,33.63
2023-05-22T17:28:39.696Z,33.82
2023-05-22T17:31:08.951Z,33.89
2023-05-22T17:33:38.542Z,33.74
2023-05-22T17:36:08.584Z,34.06
2023-05-22T17:38:37.618Z,34.34
2023-05-22T17:41:07.129Z,34.51
2023-05-22T17:43:37.897Z,34.51
2023-05-22T17:46:07.874Z,34.74
2023-05-22T17:48:36.823Z,34.90
2023-05-22T17:51:06.837Z,35.05
2023-05-22T17:53:37.202Z,35.05
2023-05-22T17:56:09.182Z,35.00
2023-05-22T17:58:39.599Z,35.20
2023-05-22T18:01:10.282Z,35.54
2023-05-22T18:03:39.905Z,35.69
2023-05-22T18:06:11.654Z,35.82
2023-05-22T18:08:44.251Z,36.14
2023-05-22T18:11:14.772Z,36.10
2023-05-22T18:13:45.401Z,35.94
2023-05-22T18:16:18.056Z,36.15
2023-05-22T18:18:47.253Z,36.23
2023-05-22T18:21:17.339Z,36.41
2023-05-22T18:23:47.594Z,36.65
2023-05-22T18:26:16.616Z,36.61
2023-05-22T18:28:47.920Z,36.65
2023-05-22T18:31:18.486Z,37.06
2023-05-22T18:33:48.185Z,37.09
2023-05-22T18:36:19.183Z,37.39
2023-05-22T18:38:48.211Z,37.51
2023-05-22T18:41:19.419Z,37.46
2023-05-22T18:43:48.353Z,37.73
2023-05-22T18:46:17.600Z,37.99
2023-05-22T18:48:47.836Z,38.30
2023-05-22T18:51:18.735Z,38.57
2023-05-22T18:53:47.773Z,38.79
2023-05-22T18:56:18.057Z,39.15
2023-05-22T18:58:47.193Z,39.46
2023-05-22T19:01:17.551Z,39.64
2023-05-22T19:03:47.939Z,39.71
2023-05-22T19:06:18.709Z,39.70
2023-05-22T19:08:47.751Z,39.86
2023-05-22T19:11:17.639Z,39.95
2023-05-22T19:13:48.177Z,40.12
2023-05-22T19:16:20.414Z,40.33
2023-05-22T19:18:49.408Z,40.58
2023-05-22T19:21:19.413Z,40.96
2023-05-22T19:23:50.536Z,41.26
2023-05-22T19:26:19.602Z,41.41
2023-05-22T19:28:53.958Z,41.87
2023-05-22T19:31:25.157Z,42.34
2023-05-22T19:33:55.595Z,42.63
2023-05-22T19:36:25.898Z,42.49
2023-05-22T19:38:56.572Z,42.82
2023-05-22T19:41:26.326Z,43.13
2023-05-22T19:43:55.673Z,43.55
2023-05-22T19:46:24.698Z,43.69
2023-05-22T19:48:54.613Z,43.67
2023-05-22T19:51:25.776Z,44.25
2023-05-22T19:53:54.792Z,44.75
2023-05-22T19:56:25.175Z,44.79
2023-05-22T19:58:56.321Z,44.88
2023-05-22T20:01:25.495Z,45.06
2023-05-22T20:03:56.328Z,45.43
2023-05-22T20:06:26.383Z,45.75
2023-05-22T20:08:56.102Z,45.84
2023-05-22T20:11:25.784Z,45.85
2023-05-22T20:13:55.177Z,45.87
2023-05-22T20:16:28.452Z,46.36
2023-05-22T20:18:58.605Z,46.75
2023-05-22T20:21:28.711Z,47.06
2023-05-22T20:23:57.842Z,47.09
2023-05-22T20:26:28.087Z,47.31
2023-05-22T20:28:57.591Z,47.55
2023-05-22T20:31:27.445Z,47.66
2023-05-22T20:34:02.242Z,47.74
2023-05-22T20:36:33.234Z,47.84
2023-05-22T20:39:03.102Z,47.99
2023-05-22T20:41:33.201Z,48.25
2023-05-22T20:44:02.859Z,48.41
2023-05-22T20:46:33.104Z,48.66
2023-05-22T20:49:04.861Z,48.49
2023-05-22T20:51:34.130Z,48.17
2023-05-22T20:54:03.609Z,48.67
2023-05-22T20:56:32.799Z,49.06
2023-05-22T20:59:02.630Z,49.29
2023-05-22T21:01:31.818Z,49.50
2023-05-22T21:04:01.089Z,49.81
2023-05-22T21:06:31.064Z,50.05
2023-05-22T21:09:01.186Z,50.13
2023-05-22T21:11:30.028Z,50.07
2023-05-22T21:13:58.967Z,49.73
2023-05-22T21:16:27.911Z,50.04
2023-05-22T21:18:57.896Z,50.23
2023-05-22T21:21:27.129Z,50.71
2023-05-22T21:23:57.971Z,50.86
2023-05-22T21:26:27.068Z,50.79
2023-05-22T21:28:56.591Z,51.14
2023-05-22T21:31:25.664Z,51.56
2023-05-22T21:33:54.579Z,51.63
2023-05-22T21:36:23.511Z,51.34
2023-05-22T21:38:52.863Z,51.45
2023-05-22T21:41:22.013Z,51.65
2023-05-22T21:43:51.255Z,51.50
2023-05-22T21:46:21.998Z,51.68
2023-05-22T21:48:51.065Z,51.97
2023-05-22T21:51:19.935Z,51.99
2023-05-22T21:53:50.510Z,52.03
2023-05-22T21:56:19.513Z,52.67
2023-05-22T21:58:49.875Z,52.84
2023-05-22T22:01:18.865Z,52.71
2023-05-22T22:03:47.879Z,52.55
2023-05-22T22:06:17.350Z,52.71
2023-05-22T22:08:46.821Z,53.16
2023-05-22T22:11:16.192Z,53.33
2023-05-22T22:13:45.411Z,53.81
2023-05-22T22:16:14.913Z,54.20
2023-05-22T22:18:44.612Z,54.25
2023-05-22T22:21:14.213Z,54.62
2023-05-22T22:23:43.735Z,54.80
2023-05-22T22:26:13.507Z,55.03
2023-05-22T22:28:42.740Z,55.08
2023-05-22T22:31:11.549Z,54.93
2023-05-22T22:33:40.298Z,54.99
2023-05-22T22:36:10.990Z,55.29
2023-05-22T22:38:39.753Z,54.95
2023-05-22T22:41:09.267Z,54.90
2023-05-22T22:43:38.149Z,54.90
2023-05-22T22:46:06.923Z,55.48
2023-05-22T22:48:36.255Z,55.48
2023-05-22T22:51:09.389Z,55.51
2023-05-22T22:53:39.389Z,55.60
2023-05-22T22:56:11.611Z,55.59
2023-05-22T22:58:40.509Z,55.91
2023-05-22T23:01:12.802Z,56.27
2023-05-22T23:03:41.742Z,56.57
2023-05-22T23:06:12.514Z,56.50
2023-05-22T23:08:41.379Z,56.62
2023-05-22T23:11:12.037Z,56.69
2023-05-22T23:13:43.050Z,56.99
2023-05-22T23:16:13.842Z,57.10
2023-05-22T23:18:43.451Z,57.12
2023-05-22T23:21:12.195Z,57.01
2023-05-22T23:23:42.374Z,56.85
2023-05-22T23:26:11.236Z,57.05
2023-05-22T23:28:43.669Z,57.53
2023-05-22T23:31:13.762Z,57.82
2023-05-22T23:33:42.493Z,57.89
2023-05-22T23:36:12.938Z,58.42
2023-05-22T23:38:43.395Z,58.54
2023-05-22T23:41:13.357Z,58.97
2023-05-22T23:43:43.659Z,59.10
2023-05-22T23:46:13.646Z,59.29
2023-05-22T23:48:43.436Z,59.55
2023-05-22T23:51:14.200Z,59.45
2023-05-22T23:53:43.492Z,59.23
2023-05-22T23:56:15.663Z,58.91
2023-05-22T23:58:45.098Z,59.09
